createdAt,value
2019-06-26T00:01:02.515Z,19.40
2019-06-26T00:03:31.125Z,19.30
2019-06-26T00:05:59.682Z,19.30
2019-06-26T00:08:28.254Z,19.30
2019-06-26T00:10:56.840Z,19.30
2019-06-26T00:13:26.865Z,19.20
2019-06-26T00:15:55.824Z,19.20
2019-06-26T00:18:24.444Z,19.20
2019-06-26T00:20:53.013Z,19.30
2019-06-26T00:23:21.683Z,19.30
2019-06-26T00:25:50.387Z,19.30
2019-06-26T00:28:19.097Z,19.30
2019-06-26T00:30:47.618Z,19.20
2019-06-26T00:33:16.190Z,19.20
2019-06-26T00:35:44.795Z,19.20
2019-06-26T00:38:13.699Z,19.20
2019-06-26T00:40:42.378Z,19.20
2019-06-26T00:43:11.194Z,19.20
2019-06-26T00:45:39.795Z,19.10
2019-06-26T00:48:08.528Z,19.20
2019-06-26T00:50:37.207Z,19.20
2019-06-26T00:53:05.910Z,19.20
2019-06-26T00:55:34.587Z,19.20
2019-06-26T00:58:03.365Z,19.10
2019-06-26T01:00:47.046Z,19.10
2019-06-26T01:03:15.696Z,19.00
2019-06-26T01:05:44.354Z,18.90
2019-06-26T01:08:12.944Z,18.80
2019-06-26T01:10:42.084Z,18.70
2019-06-26T01:13:10.848Z,18.70
2019-06-26T01:15:39.497Z,18.60
2019-06-26T01:18:08.182Z,18.50
2019-06-26T01:20:36.840Z,18.50
2019-06-26T01:23:05.798Z,18.50
2019-06-26T01:25:34.390Z,18.40
2019-06-26T01:28:02.954Z,18.40
2019-06-26T01:30:31.639Z,18.40
2019-06-26T01:33:00.395Z,18.40
2019-06-26T01:35:29.073Z,18.40
2019-06-26T01:37:57.690Z,18.40
2019-06-26T01:40:26.455Z,18.40
2019-06-26T01:42:55.259Z,18.40
2019-06-26T01:45:23.942Z,18.40
2019-06-26T01:47:52.600Z,18.40
2019-06-26T01:50:21.307Z,18.40
2019-06-26T01:52:49.990Z,18.40
2019-06-26T01:55:18.720Z,18.30
2019-06-26T01:57:47.402Z,18.40
2019-06-26T02:00:16.356Z,18.30
2019-06-26T02:02:45.034Z,18.30
2019-06-26T02:05:13.911Z,18.30
2019-06-26T02:07:42.503Z,18.30
2019-06-26T02:10:11.900Z,18.30
2019-06-26T02:12:40.560Z,18.20
2019-06-26T02:15:09.465Z,18.30
2019-06-26T02:17:38.039Z,18.30
2019-06-26T02:20:07.411Z,18.30
2019-06-26T02:22:36.099Z,18.30
2019-06-26T02:25:06.135Z,18.30
2019-06-26T02:27:34.915Z,18.30
2019-06-26T02:30:04.398Z,18.30
2019-06-26T02:32:32.974Z,18.30
2019-06-26T02:35:01.552Z,18.40
2019-06-26T02:37:30.211Z,18.40
2019-06-26T02:39:58.975Z,18.40
2019-06-26T02:42:27.559Z,18.50
2019-06-26T02:44:56.143Z,18.50
2019-06-26T02:47:26.644Z,18.60
2019-06-26T02:49:55.206Z,18.70
2019-06-26T02:52:23.928Z,18.70
2019-06-26T02:54:52.554Z,18.80
2019-06-26T02:57:21.265Z,18.80
2019-06-26T02:59:49.937Z,18.90
2019-06-26T03:02:18.576Z,18.90
2019-06-26T03:04:47.348Z,18.90
2019-06-26T03:07:15.856Z,19.00
2019-06-26T03:09:44.426Z,19.00
2019-06-26T03:12:13.032Z,19.00
2019-06-26T03:14:41.599Z,19.10
2019-06-26T03:17:10.280Z,19.10
2019-06-26T03:19:38.908Z,19.00
2019-06-26T03:22:07.538Z,19.10
2019-06-26T03:24:36.214Z,19.20
2019-06-26T03:27:04.953Z,19.20
2019-06-26T03:29:33.518Z,19.20
2019-06-26T03:32:02.141Z,19.20
2019-06-26T03:34:30.682Z,19.20
2019-06-26T03:36:59.266Z,19.30
2019-06-26T03:39:27.895Z,19.30
2019-06-26T03:41:56.512Z,19.40
2019-06-26T03:44:25.082Z,19.50
2019-06-26T03:46:53.750Z,19.50
2019-06-26T03:49:22.497Z,19.50
2019-06-26T03:51:51.127Z,19.50
2019-06-26T03:54:19.723Z,19.40
2019-06-26T03:56:48.341Z,19.40
2019-06-26T03:59:17.025Z,19.40
2019-06-26T04:01:45.843Z,19.50
2019-06-26T04:04:14.376Z,19.50
2019-06-26T04:06:42.987Z,19.60
2019-06-26T04:09:13.593Z,19.70
2019-06-26T04:11:43.499Z,19.80
2019-06-26T04:14:12.095Z,19.80
2019-06-26T04:16:42.298Z,19.90
2019-06-26T04:19:10.898Z,20.00
2019-06-26T04:21:39.610Z,20.10
2019-06-26T04:24:08.262Z,20.20
2019-06-26T04:26:36.865Z,20.30
2019-06-26T04:29:05.939Z,20.30
2019-06-26T04:31:34.591Z,20.40
2019-06-26T04:34:03.283Z,20.50
2019-06-26T04:36:31.915Z,20.60
2019-06-26T04:39:02.051Z,20.70
2019-06-26T04:41:30.619Z,20.80
2019-06-26T04:43:59.287Z,20.90
2019-06-26T04:46:28.284Z,21.00
2019-06-26T04:48:58.346Z,21.10
2019-06-26T04:51:26.981Z,21.30
2019-06-26T04:53:55.820Z,21.40
2019-06-26T04:56:24.764Z,21.40
2019-06-26T04:58:53.384Z,21.40
2019-06-26T05:01:22.116Z,21.30
2019-06-26T05:03:50.912Z,21.30
2019-06-26T05:06:19.661Z,21.30
2019-06-26T05:08:48.317Z,21.40
2019-06-26T05:11:17.012Z,21.30
2019-06-26T05:13:45.747Z,21.30
2019-06-26T05:16:19.070Z,21.40
2019-06-26T05:18:44.624Z,21.40
2019-06-26T05:21:13.189Z,21.50
2019-06-26T05:23:41.787Z,21.50
2019-06-26T05:26:10.520Z,21.50
2019-06-26T05:28:39.268Z,21.60
2019-06-26T05:31:09.412Z,21.70
2019-06-26T05:33:37.999Z,21.90
2019-06-26T05:36:06.820Z,21.90
2019-06-26T05:38:35.378Z,22.00
2019-06-26T05:41:07.001Z,22.20
2019-06-26T05:43:35.566Z,22.30
2019-06-26T05:46:04.451Z,22.30
2019-06-26T05:48:33.103Z,22.30
2019-06-26T05:51:01.773Z,22.30
2019-06-26T05:53:30.716Z,22.20
2019-06-26T05:55:59.479Z,22.20
2019-06-26T05:58:28.396Z,22.20
2019-06-26T06:00:57.088Z,22.30
2019-06-26T06:03:25.841Z,22.50
2019-06-26T06:05:56.102Z,22.70
2019-06-26T06:08:25.868Z,22.90
2019-06-26T06:10:57.981Z,23.10
2019-06-26T06:13:25.110Z,23.10
2019-06-26T06:15:53.788Z,23.00
2019-06-26T06:18:22.462Z,23.00
2019-06-26T06:20:51.116Z,23.30
2019-06-26T06:23:19.701Z,23.40
2019-06-26T06:25:48.383Z,23.40
2019-06-26T06:28:17.021Z,23.40
2019-06-26T06:30:45.711Z,23.40
2019-06-26T06:33:14.432Z,23.10
2019-06-26T06:35:43.056Z,22.90
2019-06-26T06:38:11.709Z,22.70
2019-06-26T06:40:40.307Z,22.60
2019-06-26T06:43:08.883Z,22.50
2019-06-26T06:45:37.618Z,22.60
2019-06-26T06:48:06.423Z,22.60
2019-06-26T06:50:35.030Z,22.60
2019-06-26T06:53:03.808Z,22.70
2019-06-26T06:55:32.547Z,22.80
2019-06-26T06:58:01.227Z,23.00
2019-06-26T07:00:33.023Z,23.20
2019-06-26T07:03:01.640Z,23.30
2019-06-26T07:05:30.536Z,23.60
2019-06-26T07:07:59.094Z,23.80
2019-06-26T07:10:27.759Z,23.80
2019-06-26T07:12:56.550Z,24.00
2019-06-26T07:15:25.929Z,24.10
2019-06-26T07:17:55.248Z,24.10
2019-06-26T07:20:24.521Z,24.20
2019-06-26T07:22:53.469Z,24.20
2019-06-26T07:25:22.171Z,24.00
2019-06-26T07:27:50.886Z,23.90
2019-06-26T07:30:20.298Z,23.90
2019-06-26T07:32:48.976Z,23.70
2019-06-26T07:35:18.169Z,23.50
2019-06-26T07:37:46.750Z,23.60
2019-06-26T07:40:15.965Z,23.60
2019-06-26T07:42:44.955Z,23.60
2019-06-26T07:45:13.618Z,23.50
2019-06-26T07:47:44.031Z,23.60
2019-06-26T07:50:14.486Z,23.60
2019-06-26T07:52:43.182Z,23.60
2019-06-26T07:55:12.506Z,23.50
2019-06-26T07:57:41.383Z,23.50
2019-06-26T08:00:10.645Z,23.60
2019-06-26T08:02:39.316Z,23.70
2019-06-26T08:05:14.256Z,23.80
2019-06-26T08:07:44.671Z,23.90
2019-06-26T08:10:14.613Z,24.00
2019-06-26T08:12:43.399Z,23.90
2019-06-26T08:15:13.802Z,24.00
2019-06-26T08:17:59.087Z,24.00
2019-06-26T08:20:14.550Z,24.20
2019-06-26T08:22:43.115Z,24.30
2019-06-26T08:25:11.757Z,24.40
2019-06-26T08:27:40.354Z,24.30
2019-06-26T08:30:10.347Z,24.40
2019-06-26T08:32:39.034Z,24.50
2019-06-26T08:35:09.435Z,24.60
2019-06-26T08:37:38.246Z,24.70
2019-06-26T08:40:07.540Z,25.00
2019-06-26T08:42:36.451Z,25.10
2019-06-26T08:45:07.706Z,25.30
2019-06-26T08:47:36.442Z,25.60
2019-06-26T08:50:10.436Z,25.90
2019-06-26T08:52:39.312Z,26.10
2019-06-26T08:55:08.660Z,26.30
2019-06-26T08:57:37.347Z,26.30
2019-06-26T09:00:07.589Z,26.50
2019-06-26T09:02:37.353Z,26.50
2019-06-26T09:05:06.534Z,26.70
2019-06-26T09:07:35.347Z,26.60
2019-06-26T09:10:07.043Z,26.70
2019-06-26T09:12:38.699Z,26.80
2019-06-26T09:15:08.120Z,27.00
2019-06-26T09:17:37.121Z,26.80
2019-06-26T09:20:06.912Z,26.80
2019-06-26T09:22:35.610Z,26.70
2019-06-26T09:25:20.911Z,26.80
2019-06-26T09:27:39.685Z,27.50
2019-06-26T09:30:09.291Z,28.70
2019-06-26T09:32:37.867Z,30.10
2019-06-26T09:35:09.489Z,31.20
2019-06-26T09:37:38.047Z,31.80
2019-06-26T09:40:08.658Z,32.80
2019-06-26T09:42:37.467Z,33.50
2019-06-26T09:45:09.675Z,33.00
2019-06-26T09:47:38.341Z,32.70
2019-06-26T09:50:07.990Z,32.70
2019-06-26T09:52:36.641Z,32.30
2019-06-26T09:55:06.879Z,33.00
2019-06-26T09:57:35.620Z,33.90
2019-06-26T10:00:12.015Z,34.30
2019-06-26T10:02:40.611Z,35.20
2019-06-26T10:05:09.694Z,36.60
2019-06-26T10:07:38.290Z,37.70
2019-06-26T10:10:08.039Z,38.20
2019-06-26T10:12:36.787Z,38.60
2019-06-26T10:15:07.386Z,38.90
2019-06-26T10:17:36.240Z,38.80
2019-06-26T10:20:09.404Z,39.70
2019-06-26T10:22:38.070Z,39.70
2019-06-26T10:25:11.279Z,39.90
2019-06-26T10:27:39.296Z,40.30
2019-06-26T10:30:09.086Z,40.30
2019-06-26T10:32:37.780Z,40.00
2019-06-26T10:35:07.979Z,39.80
2019-06-26T10:37:36.791Z,39.80
2019-06-26T10:40:06.222Z,40.20
2019-06-26T10:42:35.081Z,40.30
2019-06-26T10:45:05.743Z,40.40
2019-06-26T10:47:34.299Z,40.10
2019-06-26T10:50:03.476Z,39.60
2019-06-26T10:52:32.111Z,39.80
2019-06-26T10:55:00.836Z,40.00
2019-06-26T10:57:29.474Z,40.20
2019-06-26T10:59:58.374Z,40.10
2019-06-26T11:02:26.886Z,39.90
2019-06-26T11:04:55.613Z,39.60
2019-06-26T11:07:24.220Z,40.00
2019-06-26T11:09:52.919Z,40.50
2019-06-26T11:12:21.503Z,41.10
2019-06-26T11:14:50.216Z,41.70
2019-06-26T11:17:18.976Z,42.20
2019-06-26T11:19:49.114Z,42.10
2019-06-26T11:22:18.967Z,42.60
2019-06-26T11:24:47.512Z,43.10
2019-06-26T11:27:16.267Z,43.40
2019-06-26T11:29:44.923Z,43.60
2019-06-26T11:32:13.594Z,42.50
2019-06-26T11:34:42.251Z,41.40
2019-06-26T11:37:10.862Z,40.90
2019-06-26T11:39:39.657Z,41.20
2019-06-26T11:42:08.316Z,42.00
2019-06-26T11:44:36.983Z,42.40
2019-06-26T11:47:05.744Z,42.20
2019-06-26T11:49:34.451Z,42.20
2019-06-26T11:52:03.147Z,42.00
2019-06-26T11:54:31.686Z,41.80
2019-06-26T11:57:01.157Z,41.20
2019-06-26T11:59:29.788Z,40.60
2019-06-26T12:01:58.421Z,39.90
2019-06-26T12:04:27.016Z,39.40
2019-06-26T12:06:55.651Z,39.00
2019-06-26T12:09:24.283Z,38.80
2019-06-26T12:11:52.898Z,38.60
2019-06-26T12:14:21.734Z,38.30
2019-06-26T12:16:50.531Z,38.20
2019-06-26T12:19:23.283Z,38.00
2019-06-26T12:21:49.471Z,37.70
2019-06-26T12:24:18.161Z,37.30
2019-06-26T12:26:46.749Z,37.00
2019-06-26T12:29:15.336Z,36.50
2019-06-26T12:31:43.995Z,36.30
2019-06-26T12:34:12.913Z,36.30
2019-06-26T12:36:41.570Z,36.50
2019-06-26T12:39:10.271Z,36.60
2019-06-26T12:41:38.840Z,36.70
2019-06-26T12:44:07.493Z,36.90
2019-06-26T12:46:36.183Z,37.20
2019-06-26T12:49:05.131Z,37.50
2019-06-26T12:51:33.734Z,37.90
2019-06-26T12:54:02.444Z,38.20
2019-06-26T12:56:31.085Z,38.40
2019-06-26T12:59:00.100Z,38.50
2019-06-26T13:01:30.527Z,38.20
2019-06-26T13:03:59.127Z,37.90
2019-06-26T13:06:27.807Z,37.50
2019-06-26T13:08:56.477Z,37.30
2019-06-26T13:11:25.053Z,37.00
2019-06-26T13:14:02.635Z,36.70
2019-06-26T13:16:24.071Z,36.40
2019-06-26T13:18:54.596Z,36.20
2019-06-26T13:21:22.915Z,36.10
2019-06-26T13:23:51.450Z,35.80
2019-06-26T13:26:20.065Z,35.60
2019-06-26T13:28:48.746Z,35.50
2019-06-26T14:46:04.335Z,33.00
2019-06-26T14:48:36.139Z,32.70
2019-06-26T14:51:04.510Z,32.40
2019-06-26T14:53:33.279Z,32.10
2019-06-26T14:56:02.146Z,31.80
2019-06-26T14:58:30.941Z,31.60
2019-06-26T15:00:59.536Z,31.40
2019-06-26T15:03:28.202Z,31.30
2019-06-26T15:05:56.963Z,31.10
2019-06-26T15:08:25.556Z,31.00
2019-06-26T15:10:54.369Z,30.80
2019-06-26T15:13:23.001Z,30.60
2019-06-26T15:15:54.716Z,30.40
2019-06-26T15:18:22.147Z,30.30
2019-06-26T15:20:50.869Z,30.20
2019-06-26T15:23:19.530Z,30.30
2019-06-26T15:25:48.261Z,30.30
2019-06-26T15:28:16.878Z,30.40
2019-06-26T15:30:45.566Z,30.20
2019-06-26T15:33:14.265Z,30.10
2019-06-26T21:01:07.162Z,21.70
2019-06-26T21:03:35.955Z,21.70
2019-06-26T21:06:04.690Z,21.60
2019-06-26T21:08:33.458Z,21.50
2019-06-26T21:11:02.288Z,21.30
2019-06-26T21:13:30.870Z,21.20
2019-06-26T21:15:59.449Z,21.10
2019-06-26T21:18:28.063Z,21.10
2019-06-26T21:20:56.714Z,21.10
2019-06-26T21:23:25.286Z,21.00
2019-06-26T21:25:53.922Z,21.00
2019-06-26T21:28:22.574Z,21.00
2019-06-26T21:30:51.235Z,20.90
2019-06-26T21:33:19.842Z,20.90
2019-06-26T21:35:48.478Z,20.80
2019-06-26T21:38:17.050Z,20.70
2019-06-26T21:40:45.663Z,20.70
2019-06-26T21:43:14.331Z,20.70
2019-06-26T21:45:43.285Z,20.70
2019-06-26T21:48:11.797Z,20.60
2019-06-26T21:50:40.402Z,20.60
2019-06-26T21:53:08.979Z,20.50
2019-06-26T21:55:37.562Z,20.50
2019-06-26T21:58:06.235Z,20.40
2019-06-26T22:00:36.888Z,20.30
2019-06-26T22:03:06.501Z,20.20
2019-06-26T22:05:35.376Z,20.00
2019-06-26T22:08:04.804Z,19.90
2019-06-26T22:10:33.800Z,19.80
2019-06-26T22:13:02.783Z,19.70
2019-06-26T22:15:31.434Z,19.70
2019-06-26T22:18:00.064Z,19.60
2019-06-26T22:20:28.910Z,19.50
2019-06-26T22:22:57.531Z,19.50
2019-06-26T22:25:26.375Z,19.50
2019-06-26T22:27:55.135Z,19.50
2019-06-26T22:30:24.459Z,19.50
2019-06-26T22:32:53.245Z,19.50
2019-06-26T22:35:22.033Z,19.50
2019-06-26T22:37:50.848Z,19.60
2019-06-26T22:40:19.603Z,19.60
2019-06-26T22:42:48.540Z,19.60
2019-06-26T22:45:17.661Z,19.40
2019-06-26T22:47:46.501Z,19.40
2019-06-26T22:50:15.934Z,19.40
2019-06-26T22:52:44.790Z,19.40
2019-06-26T22:55:14.475Z,19.30
2019-06-26T22:57:43.390Z,19.30
2019-06-26T23:00:14.840Z,19.30
2019-06-26T23:02:43.595Z,19.30
2019-06-26T23:05:12.483Z,19.20
2019-06-26T23:07:41.267Z,19.20
2019-06-26T23:10:10.405Z,19.20
2019-06-26T23:12:39.181Z,19.10
2019-06-26T23:15:09.087Z,19.10
2019-06-26T23:17:37.771Z,19.10
2019-06-26T23:20:08.611Z,19.10
2019-06-26T23:22:37.287Z,19.10
2019-06-26T23:25:07.443Z,19.10
2019-06-26T23:27:36.170Z,19.00
2019-06-26T23:30:10.469Z,19.00
2019-06-26T23:32:39.086Z,19.00
2019-06-26T23:35:07.739Z,19.10
2019-06-26T23:37:36.458Z,19.00
2019-06-26T23:40:05.723Z,19.10
2019-06-26T23:42:34.304Z,19.10
2019-06-26T23:45:03.283Z,19.20
2019-06-26T23:47:31.870Z,19.20
2019-06-26T23:50:00.439Z,19.20
2019-06-26T23:52:29.161Z,19.20
2019-06-26T23:54:57.815Z,19.20
2019-06-26T23:57:26.410Z,19.20
2019-06-26T23:59:55.053Z,19.10
